Time;durP1;ratioP1;P1;durP2;ratioP2;P2;SDS_P1;SDS_P2;PMS_P1;PMS_P2;Temp;Humidity;BMP_temperature;BMP_pressure;BME280_temperature;BME280_humidity;BME280_pressure;Samples;Min_cycle;Max_cycle;Signal;HPM_P1;HPM_P2
2023/11/11 00:02:03;;;;;;;3.42;1.48;;;22.90;52.80;;;;;;5025323;28;20022;-70
2023/11/11 00:04:29;;;;;;;2.63;1.23;;;22.80;52.80;;;;;;5006624;28;20033;-70
2023/11/11 00:06:55;;;;;;;2.45;1.30;;;22.80;52.80;;;;;;5023730;28;20112;-71
2023/11/11 00:09:20;;;;;;;2.35;1.35;;;22.80;52.80;;;;;;5022842;28;20030;-70
2023/11/11 00:11:46;;;;;;;3.22;1.27;;;22.80;52.90;;;;;;5024507;28;20033;-70
2023/11/11 00:14:14;;;;;;;2.50;1.17;;;22.70;52.80;;;;;;5025010;28;20032;-71
2023/11/11 00:16:40;;;;;;;3.17;1.65;;;22.70;52.90;;;;;;5025324;28;20120;-70
2023/11/11 00:19:06;;;;;;;2.58;1.30;;;22.70;52.90;;;;;;5025552;28;20066;-70
2023/11/11 00:21:37;;;;;;;3.00;1.40;;;22.70;52.90;;;;;;5022862;28;20049;-71
2023/11/11 00:24:07;;;;;;;3.05;1.35;;;22.70;53.00;;;;;;5039749;28;20037;-71
2023/11/11 00:26:33;;;;;;;2.58;1.20;;;22.70;53.00;;;;;;5022406;28;20038;-70
2023/11/11 00:28:59;;;;;;;2.20;1.30;;;22.60;53.00;;;;;;5024821;28;20025;-66
2023/11/11 00:31:24;;;;;;;2.72;1.33;;;22.60;53.00;;;;;;5024865;28;20124;-67
2023/11/11 00:33:51;;;;;;;3.28;1.23;;;22.60;53.00;;;;;;5023727;28;20397;-66
2023/11/11 00:36:19;;;;;;;2.58;1.38;;;22.60;53.10;;;;;;5037293;28;20030;-66
2023/11/11 00:38:44;;;;;;;2.20;1.25;;;22.50;53.10;;;;;;5022349;28;20017;-66
2023/11/11 00:41:11;;;;;;;3.50;1.35;;;22.50;53.10;;;;;;5021942;28;20073;-66
2023/11/11 00:43:37;;;;;;;3.33;1.45;;;22.50;53.10;;;;;;5021461;28;20057;-66
2023/11/11 00:46:03;;;;;;;2.60;1.10;;;22.50;53.10;;;;;;5020000;28;20037;-66
2023/11/11 00:48:30;;;;;;;2.10;1.20;;;22.50;53.20;;;;;;5020767;28;20021;-67
2023/11/11 00:50:56;;;;;;;2.58;1.42;;;22.40;53.20;;;;;;5019156;28;20033;-66
2023/11/11 00:53:21;;;;;;;2.05;1.10;;;22.40;53.20;;;;;;5020806;28;20029;-66
2023/11/11 00:55:47;;;;;;;2.53;1.15;;;22.40;53.30;;;;;;5035466;28;20493;-65
2023/11/11 00:58:13;;;;;;;2.50;1.20;;;22.40;53.30;;;;;;5020322;28;20029;-66
2023/11/11 01:00:38;;;;;;;2.00;1.20;;;22.30;53.20;;;;;;5021969;28;20041;-66
2023/11/11 01:03:05;;;;;;;2.95;1.38;;;22.30;53.20;;;;;;5021455;28;20021;-66
2023/11/11 01:05:31;;;;;;;1.58;1.00;;;22.30;53.30;;;;;;5018290;28;20040;-66
2023/11/11 01:07:57;;;;;;;2.63;1.30;;;22.20;53.30;;;;;;5014729;28;20034;-66
2023/11/11 01:10:23;;;;;;;2.17;1.10;;;22.30;53.30;;;;;;5020538;28;20422;-66
2023/11/11 01:12:50;;;;;;;2.60;1.20;;;22.20;53.30;;;;;;5003496;28;20109;-66
2023/11/11 01:15:16;;;;;;;2.83;1.45;;;22.20;53.30;;;;;;5022139;28;20163;-66
2023/11/11 01:17:42;;;;;;;2.28;1.10;;;22.20;53.40;;;;;;5021053;28;20979;-66
2023/11/11 01:20:08;;;;;;;1.95;1.00;;;22.20;53.40;;;;;;5021239;28;20113;-66
2023/11/11 01:22:34;;;;;;;2.17;1.20;;;22.10;53.30;;;;;;5018457;28;20087;-66
2023/11/11 01:25:00;;;;;;;1.90;1.00;;;22.10;53.30;;;;;;5021412;28;20448;-66
2023/11/11 01:27:26;;;;;;;1.98;1.10;;;22.10;53.30;;;;;;5020533;28;20026;-67
2023/11/11 01:29:52;;;;;;;2.30;1.10;;;22.10;53.40;;;;;;5020128;28;20025;-66
2023/11/11 01:32:19;;;;;;;3.00;1.30;;;22.10;53.40;;;;;;5018888;28;20490;-65
2023/11/11 01:34:44;;;;;;;2.60;1.10;;;22.10;53.30;;;;;;5020644;28;20049;-66
2023/11/11 01:37:10;;;;;;;2.45;1.10;;;22.10;53.20;;;;;;5017589;28;20111;-66
2023/11/11 01:39:36;;;;;;;2.20;1.13;;;22.00;53.20;;;;;;5021075;28;20022;-68
2023/11/11 01:42:02;;;;;;;2.63;1.10;;;22.00;53.30;;;;;;5018530;28;20115;-68
2023/11/11 01:44:28;;;;;;;2.58;1.20;;;21.90;53.20;;;;;;5022170;28;20052;-67
2023/11/11 01:46:55;;;;;;;1.92;1.17;;;22.00;53.30;;;;;;5021041;28;20466;-68
2023/11/11 01:49:21;;;;;;;1.35;0.80;;;21.90;53.60;;;;;;5034714;28;20433;-67
2023/11/11 01:51:49;;;;;;;1.85;1.00;;;22.00;53.10;;;;;;5000559;28;20580;-68
2023/11/11 01:54:16;;;;;;;2.10;1.00;;;21.90;53.00;;;;;;5020862;28;20026;-67
2023/11/11 01:56:42;;;;;;;2.03;1.00;;;21.90;53.00;;;;;;5018053;28;20548;-67
2023/11/11 01:59:10;;;;;;;1.88;1.10;;;21.90;53.00;;;;;;5021200;28;20108;-67
2023/11/11 02:01:35;;;;;;;2.20;1.17;;;21.80;53.10;;;;;;5018289;28;20022;-68
2023/11/11 02:04:01;;;;;;;2.08;1.00;;;21.90;53.10;;;;;;5020042;28;20029;-68
2023/11/11 02:06:28;;;;;;;2.25;1.10;;;21.80;53.00;;;;;;5016440;28;20116;-68
2023/11/11 02:08:54;;;;;;;1.58;0.90;;;21.80;53.00;;;;;;5019613;28;20022;-67
2023/11/11 02:11:21;;;;;;;1.45;0.90;;;21.80;52.90;;;;;;5018453;28;20030;-67
2023/11/11 02:13:47;;;;;;;1.40;0.80;;;21.80;53.00;;;;;;5018166;28;20037;-67
2023/11/11 02:16:14;;;;;;;2.17;1.10;;;21.80;52.90;;;;;;5019314;28;20335;-67
2023/11/11 02:18:40;;;;;;;2.15;0.98;;;21.70;52.90;;;;;;5020310;28;20477;-67
2023/11/11 02:21:06;;;;;;;1.58;0.90;;;21.70;52.80;;;;;;5019761;28;20026;-67
2023/11/11 02:23:32;;;;;;;2.00;0.90;;;21.70;53.00;;;;;;5019057;28;20072;-67
2023/11/11 02:25:58;;;;;;;1.30;0.90;;;21.70;52.90;;;;;;5018599;28;20061;-67
2023/11/11 02:28:24;;;;;;;1.92;1.00;;;21.70;52.80;;;;;;5020661;28;20414;-67
2023/11/11 02:30:49;;;;;;;1.30;0.80;;;21.70;52.80;;;;;;5034710;28;20030;-67
2023/11/11 02:33:15;;;;;;;1.55;0.80;;;21.70;52.90;;;;;;5018254;28;20080;-67
2023/11/11 02:35:41;;;;;;;1.38;0.80;;;21.60;52.70;;;;;;5020065;28;20025;-67
2023/11/11 02:38:06;;;;;;;1.50;0.90;;;21.60;52.80;;;;;;5017537;28;20028;-67
2023/11/11 02:40:32;;;;;;;1.98;0.90;;;21.60;52.90;;;;;;5032550;28;20457;-67
2023/11/11 02:42:57;;;;;;;1.80;0.90;;;21.60;52.90;;;;;;5003503;28;20026;-67
2023/11/11 02:45:25;;;;;;;2.03;1.05;;;21.60;52.80;;;;;;5019038;28;20029;-67
2023/11/11 02:47:51;;;;;;;1.65;0.90;;;21.60;52.80;;;;;;5020161;28;20025;-66
2023/11/11 02:50:16;;;;;;;1.38;0.80;;;21.50;52.70;;;;;;5018318;28;20962;-68
2023/11/11 02:52:42;;;;;;;1.23;0.90;;;21.50;52.80;;;;;;5017608;28;20492;-67
2023/11/11 02:55:09;;;;;;;1.60;0.90;;;21.50;52.80;;;;;;5020275;28;20501;-67
2023/11/11 02:57:35;;;;;;;1.20;0.80;;;21.50;52.80;;;;;;5018782;28;20474;-67
2023/11/11 03:00:01;;;;;;;1.65;0.80;;;21.50;52.80;;;;;;5021807;28;20030;-67
2023/11/11 03:02:27;;;;;;;1.30;0.80;;;21.50;52.70;;;;;;5019293;28;20033;-67
2023/11/11 03:04:52;;;;;;;1.35;0.80;;;21.40;52.60;;;;;;5016777;28;20036;-68
2023/11/11 03:07:18;;;;;;;1.40;0.80;;;21.40;52.70;;;;;;5014494;28;20080;-67
2023/11/11 03:09:44;;;;;;;1.38;0.80;;;21.40;52.60;;;;;;5019225;28;20041;-67
2023/11/11 03:12:11;;;;;;;1.95;1.00;;;21.40;52.60;;;;;;5017997;28;20022;-67
2023/11/11 03:14:37;;;;;;;2.00;0.90;;;21.40;52.70;;;;;;5020103;28;20481;-67
2023/11/11 03:17:02;;;;;;;0.70;0.70;;;21.40;52.60;;;;;;5021406;28;20091;-68
2023/11/11 03:19:28;;;;;;;1.25;0.80;;;21.40;52.60;;;;;;5018395;28;20033;-67
2023/11/11 03:21:54;;;;;;;1.42;0.80;;;21.40;52.60;;;;;;5017104;28;20037;-66
2023/11/11 03:24:20;;;;;;;1.00;0.80;;;21.30;52.60;;;;;;5016112;28;20038;-67
2023/11/11 03:26:46;;;;;;;0.93;0.68;;;21.30;52.80;;;;;;5015109;28;20030;-67
2023/11/11 03:29:12;;;;;;;1.20;0.75;;;21.30;52.80;;;;;;5015938;28;20097;-67
2023/11/11 03:31:37;;;;;;;1.30;0.75;;;21.30;53.30;;;;;;5019234;28;20370;-67
2023/11/11 03:34:03;;;;;;;1.10;0.77;;;21.30;52.80;;;;;;5018172;28;20112;-67
2023/11/11 03:36:28;;;;;;;1.65;0.85;;;21.30;52.80;;;;;;5020285;28;20034;-67
2023/11/11 03:38:54;;;;;;;1.38;0.90;;;21.30;52.80;;;;;;5017319;28;20021;-67
2023/11/11 03:41:20;;;;;;;1.30;0.80;;;21.30;52.90;;;;;;5017382;28;20098;-67
2023/11/11 03:43:45;;;;;;;1.17;0.68;;;21.20;52.90;;;;;;5018368;28;20029;-67
2023/11/11 03:46:11;;;;;;;1.25;0.82;;;21.20;53.00;;;;;;5019252;28;20030;-66
2023/11/11 03:48:37;;;;;;;1.35;0.80;;;21.20;53.10;;;;;;5016523;28;20038;-66
2023/11/11 03:51:03;;;;;;;1.40;0.80;;;21.20;53.10;;;;;;5016879;28;20160;-68
2023/11/11 03:53:28;;;;;;;1.23;0.90;;;21.20;53.10;;;;;;5017664;28;20401;-66
2023/11/11 03:55:54;;;;;;;1.27;0.80;;;21.20;53.20;;;;;;5017179;28;20025;-66
2023/11/11 03:58:19;;;;;;;1.45;0.90;;;21.20;53.20;;;;;;5017156;28;20026;-70
2023/11/11 04:00:45;;;;;;;1.42;0.73;;;21.10;53.20;;;;;;5020373;28;20036;-71
2023/11/11 04:03:11;;;;;;;1.00;0.73;;;21.20;53.30;;;;;;5018452;28;20041;-70
2023/11/11 04:05:37;;;;;;;1.23;0.70;;;21.10;53.20;;;;;;5017315;28;20473;-70
2023/11/11 04:08:03;;;;;;;1.33;0.80;;;21.10;53.30;;;;;;5016183;28;20107;-70
2023/11/11 04:10:30;;;;;;;1.23;0.75;;;21.10;53.30;;;;;;5018111;28;20026;-70
2023/11/11 04:12:56;;;;;;;1.13;0.68;;;21.10;53.30;;;;;;5018817;28;20033;-70
2023/11/11 04:15:22;;;;;;;1.02;0.60;;;21.10;53.40;;;;;;5018385;28;20025;-70
2023/11/11 04:17:48;;;;;;;1.05;0.70;;;21.10;53.40;;;;;;5018926;28;20113;-70
2023/11/11 04:20:14;;;;;;;1.02;0.60;;;21.10;53.40;;;;;;5021608;28;20040;-70
2023/11/11 04:22:41;;;;;;;1.10;0.80;;;21.10;53.40;;;;;;5019825;28;20053;-70
2023/11/11 04:25:08;;;;;;;1.20;0.80;;;21.10;53.40;;;;;;5022094;28;20049;-70
2023/11/11 04:27:37;;;;;;;1.25;0.65;;;21.10;53.50;;;;;;5021023;28;20029;-71
2023/11/11 04:30:06;;;;;;;0.82;0.60;;;21.10;53.50;;;;;;5021821;28;20500;-70
2023/11/11 04:32:33;;;;;;;0.93;0.60;;;21.00;53.50;;;;;;5004309;28;20124;-70
2023/11/11 04:34:59;;;;;;;0.90;0.65;;;21.10;53.60;;;;;;5004186;28;20033;-70
2023/11/11 04:37:25;;;;;;;0.90;0.68;;;21.00;53.60;;;;;;5021431;28;20108;-70
2023/11/11 04:39:57;;;;;;;1.00;0.77;;;21.00;53.60;;;;;;5020358;28;20113;-70
2023/11/11 04:42:26;;;;;;;1.30;0.70;;;21.00;53.60;;;;;;5020368;28;20037;-70
2023/11/11 04:44:53;;;;;;;1.02;0.75;;;21.00;53.60;;;;;;5022285;28;20025;-70
2023/11/11 04:47:20;;;;;;;0.88;0.65;;;21.00;53.70;;;;;;5021055;28;20389;-70
2023/11/11 04:49:46;;;;;;;1.33;0.70;;;21.00;53.70;;;;;;5020689;28;20033;-70
2023/11/11 04:52:12;;;;;;;1.05;0.73;;;21.00;53.70;;;;;;5021305;28;20560;-71
2023/11/11 04:54:38;;;;;;;1.08;0.70;;;20.90;53.70;;;;;;5019205;28;20026;-70
2023/11/11 04:57:05;;;;;;;1.05;0.52;;;21.00;53.80;;;;;;5022101;28;20025;-70
2023/11/11 04:59:30;;;;;;;1.40;0.60;;;20.90;53.70;;;;;;5019713;28;20440;-68
2023/11/11 05:01:56;;;;;;;0.70;0.60;;;20.90;53.70;;;;;;5020778;28;20040;-68
2023/11/11 05:04:22;;;;;;;1.02;0.63;;;20.90;53.70;;;;;;5019839;28;20026;-68
2023/11/11 05:06:48;;;;;;;1.00;0.60;;;20.90;53.80;;;;;;5019897;28;20027;-67
2023/11/11 05:09:15;;;;;;;0.85;0.60;;;20.90;53.80;;;;;;5019492;28;20045;-67
2023/11/11 05:11:41;;;;;;;0.77;0.60;;;20.90;53.80;;;;;;5017377;28;20466;-67
2023/11/11 05:14:10;;;;;;;1.35;0.73;;;20.90;53.80;;;;;;5015033;28;20029;-67
2023/11/11 05:16:44;;;;;;;0.77;0.70;;;20.90;53.90;;;;;;5018373;28;20018;-66
2023/11/11 05:19:11;;;;;;;0.50;0.50;;;20.90;53.80;;;;;;5020354;28;20050;-67
2023/11/11 05:21:37;;;;;;;0.93;0.65;;;20.90;53.90;;;;;;5023164;28;20033;-67
2023/11/11 05:24:03;;;;;;;0.93;0.65;;;20.80;53.90;;;;;;5018345;28;20508;-67
2023/11/11 05:26:32;;;;;;;0.80;0.60;;;20.80;53.90;;;;;;5019472;28;20029;-67
2023/11/11 05:28:58;;;;;;;0.80;0.60;;;20.80;53.90;;;;;;5021514;28;20453;-67
2023/11/11 05:31:25;;;;;;;1.00;0.70;;;20.80;53.90;;;;;;5019802;28;20124;-67
2023/11/11 05:33:51;;;;;;;0.57;0.50;;;20.80;53.90;;;;;;5020936;28;20064;-67
2023/11/11 05:36:17;;;;;;;0.88;0.55;;;20.80;53.90;;;;;;5018232;28;20442;-67
2023/11/11 05:38:43;;;;;;;1.33;0.60;;;20.80;54.00;;;;;;5020110;28;20014;-67
2023/11/11 05:41:08;;;;;;;0.85;0.60;;;20.80;54.00;;;;;;5019882;28;20029;-67
2023/11/11 05:43:34;;;;;;;0.60;0.60;;;20.80;54.00;;;;;;5019608;28;20124;-67
2023/11/11 05:46:00;;;;;;;0.98;0.70;;;20.70;54.00;;;;;;5018797;28;20561;-67
2023/11/11 05:48:26;;;;;;;0.88;0.60;;;20.80;54.10;;;;;;5021014;28;20045;-67
2023/11/11 05:50:51;;;;;;;0.70;0.50;;;20.80;54.10;;;;;;5019219;28;20184;-67
2023/11/11 05:53:17;;;;;;;0.70;0.60;;;20.70;54.10;;;;;;5018919;28;20448;-67
2023/11/11 05:55:44;;;;;;;0.65;0.50;;;20.70;54.10;;;;;;5020513;28;20100;-67
2023/11/11 05:58:09;;;;;;;0.65;0.57;;;20.70;54.10;;;;;;5020077;28;20462;-66
2023/11/11 06:00:38;;;;;;;0.80;0.55;;;20.70;54.10;;;;;;5019682;28;20032;-67
2023/11/11 06:03:04;;;;;;;1.05;0.63;;;20.70;54.20;;;;;;5002062;28;20076;-67
2023/11/11 06:05:30;;;;;;;0.82;0.70;;;20.70;54.20;;;;;;5001798;28;20041;-67
2023/11/11 06:07:56;;;;;;;0.63;0.50;;;20.70;54.20;;;;;;5020008;28;20102;-67
2023/11/11 06:10:23;;;;;;;0.60;0.50;;;20.70;54.20;;;;;;5019921;28;20076;-70
2023/11/11 06:12:49;;;;;;;0.80;0.50;;;20.70;54.30;;;;;;5019481;28;20101;-71
2023/11/11 06:15:15;;;;;;;0.77;0.52;;;20.70;54.20;;;;;;5020551;28;20030;-70
2023/11/11 06:17:40;;;;;;;1.15;0.63;;;20.60;54.20;;;;;;5020672;28;20350;-70
2023/11/11 06:20:08;;;;;;;0.50;0.40;;;20.70;54.30;;;;;;5020485;28;20092;-68
2023/11/11 06:22:33;;;;;;;0.80;0.60;;;20.60;54.20;;;;;;5019139;28;20474;-68
2023/11/11 06:24:59;;;;;;;0.70;0.60;;;20.60;54.20;;;;;;5016610;28;20038;-68
2023/11/11 06:27:25;;;;;;;1.05;0.60;;;20.60;54.20;;;;;;5017856;28;20589;-68
2023/11/11 06:29:51;;;;;;;0.73;0.60;;;20.60;54.20;;;;;;5016896;28;20101;-68
2023/11/11 06:32:16;;;;;;;0.90;0.60;;;20.70;54.30;;;;;;5019393;28;20029;-68
2023/11/11 06:34:42;;;;;;;0.95;0.70;;;20.60;54.30;;;;;;5019935;28;20025;-68
2023/11/11 06:37:08;;;;;;;0.52;0.52;;;20.60;54.30;;;;;;5021333;28;20025;-68
2023/11/11 06:39:33;;;;;;;0.70;0.50;;;20.60;54.30;;;;;;5019804;28;20022;-68
2023/11/11 06:41:59;;;;;;;0.70;0.50;;;20.60;54.30;;;;;;5018143;28;20029;-68
2023/11/11 06:44:25;;;;;;;0.70;0.50;;;20.60;54.30;;;;;;5016837;28;20026;-68
2023/11/11 06:46:50;;;;;;;0.60;0.60;;;20.60;54.30;;;;;;5019418;28;20022;-68
2023/11/11 06:49:16;;;;;;;0.73;0.60;;;20.60;54.30;;;;;;5020215;28;20033;-68
2023/11/11 06:51:42;;;;;;;1.17;0.52;;;20.60;54.40;;;;;;5017216;28;20435;-68
2023/11/11 06:54:09;;;;;;;0.90;0.70;;;20.60;54.30;;;;;;5016671;28;20026;-68
2023/11/11 06:56:35;;;;;;;0.70;0.60;;;20.60;54.40;;;;;;5017721;28;20358;-68
2023/11/11 06:59:02;;;;;;;0.93;0.73;;;20.60;54.40;;;;;;5015247;28;20474;-68
2023/11/11 07:01:29;;;;;;;0.57;0.50;;;20.60;54.40;;;;;;5018985;28;20032;-67
2023/11/11 07:03:57;;;;;;;0.70;0.50;;;20.60;54.40;;;;;;5019701;28;20345;-68
2023/11/11 07:06:23;;;;;;;1.05;0.60;;;20.50;54.40;;;;;;5019023;28;20110;-68
2023/11/11 07:08:53;;;;;;;1.02;0.52;;;20.50;54.40;;;;;;5030441;28;20041;-68
2023/11/11 07:11:19;;;;;;;0.52;0.52;;;20.50;54.40;;;;;;5016123;28;20029;-68
2023/11/11 07:13:46;;;;;;;0.80;0.60;;;20.50;54.40;;;;;;5009830;28;20041;-68
2023/11/11 07:16:16;;;;;;;0.50;0.50;;;20.50;54.40;;;;;;5016648;28;20404;-68
2023/11/11 07:18:45;;;;;;;0.82;0.50;;;20.50;54.90;;;;;;5019041;28;20018;-66
2023/11/11 07:21:18;;;;;;;0.95;0.60;;;20.50;54.40;;;;;;5019511;28;20080;-66
2023/11/11 07:23:43;;;;;;;0.82;0.60;;;20.50;54.40;;;;;;5015496;28;20056;-67
2023/11/11 07:26:11;;;;;;;0.88;0.60;;;20.50;54.40;;;;;;4999318;28;20560;-66
2023/11/11 07:28:37;;;;;;;0.40;0.40;;;20.50;54.40;;;;;;5017816;28;20033;-66
2023/11/11 07:31:03;;;;;;;0.88;0.50;;;20.50;54.50;;;;;;5019899;28;20067;-68
2023/11/11 07:33:28;;;;;;;1.45;0.68;;;20.50;54.40;;;;;;5017657;28;20339;-68
2023/11/11 07:35:55;;;;;;;0.77;0.50;;;20.50;54.40;;;;;;5020046;28;20132;-68
2023/11/11 07:38:21;;;;;;;0.63;0.60;;;20.50;54.40;;;;;;5034966;28;20026;-68
2023/11/11 07:40:47;;;;;;;0.50;0.50;;;20.50;55.00;;;;;;5030428;28;20116;-68
2023/11/11 07:43:13;;;;;;;0.40;0.40;;;20.50;54.50;;;;;;5017534;28;20041;-68
2023/11/11 07:45:38;;;;;;;0.70;0.60;;;20.50;54.50;;;;;;5016894;28;20018;-68
2023/11/11 07:48:04;;;;;;;0.77;0.60;;;20.50;54.50;;;;;;5018576;28;20075;-68
2023/11/11 07:50:31;;;;;;;0.70;0.50;;;20.40;54.50;;;;;;5017437;28;20505;-68
2023/11/11 07:52:56;;;;;;;0.68;0.60;;;20.50;54.50;;;;;;5020991;28;20045;-67
2023/11/11 07:55:22;;;;;;;0.60;0.50;;;20.50;54.50;;;;;;5020672;28;20021;-68
2023/11/11 07:57:49;;;;;;;0.73;0.50;;;20.40;54.50;;;;;;5036424;28;20167;-68
2023/11/11 08:00:19;;;;;;;0.70;0.50;;;20.40;54.50;;;;;;5024492;28;20571;-67
2023/11/11 08:02:47;;;;;;;0.82;0.60;;;20.40;54.50;;;;;;5021745;28;20021;-66
2023/11/11 08:05:13;;;;;;;1.17;0.60;;;20.40;54.50;;;;;;5022797;28;20117;-66
2023/11/11 08:07:38;;;;;;;0.90;0.60;;;20.40;54.50;;;;;;5022491;28;20456;-66
2023/11/11 08:10:06;;;;;;;1.10;0.60;;;20.40;54.50;;;;;;5015274;28;20075;-67
2023/11/11 08:12:32;;;;;;;0.65;0.50;;;20.40;54.60;;;;;;5023970;28;20088;-66
2023/11/11 08:15:00;;;;;;;0.60;0.40;;;20.40;54.60;;;;;;5022422;28;20064;-67
2023/11/11 08:17:27;;;;;;;0.50;0.50;;;20.40;54.60;;;;;;5004524;28;20419;-67
2023/11/11 08:19:53;;;;;;;0.57;0.50;;;20.40;54.60;;;;;;5022956;28;20484;-67
2023/11/11 08:22:19;;;;;;;0.98;0.50;;;20.40;54.60;;;;;;5022139;28;20025;-66
2023/11/11 08:24:45;;;;;;;0.82;0.50;;;20.40;54.60;;;;;;5019800;28;20084;-66
2023/11/11 08:27:11;;;;;;;0.60;0.60;;;20.40;54.60;;;;;;5021893;28;20026;-66
2023/11/11 08:29:36;;;;;;;0.80;0.60;;;20.40;54.60;;;;;;5022099;28;20187;-67
2023/11/11 08:32:02;;;;;;;0.57;0.50;;;20.40;54.60;;;;;;5022171;28;20493;-68
2023/11/11 08:34:31;;;;;;;0.90;0.52;;;20.40;54.60;;;;;;5019976;28;20032;-67
2023/11/11 08:36:59;;;;;;;0.50;0.50;;;20.40;54.60;;;;;;5022850;28;20022;-68
2023/11/11 08:39:25;;;;;;;0.40;0.40;;;20.30;54.60;;;;;;5021325;28;20033;-66
2023/11/11 08:41:52;;;;;;;1.02;0.50;;;20.40;54.70;;;;;;5037998;28;20038;-66
2023/11/11 08:44:18;;;;;;;0.50;0.40;;;20.30;54.60;;;;;;5022815;28;20038;-66
2023/11/11 08:46:43;;;;;;;0.80;0.50;;;20.40;54.70;;;;;;5020807;28;20033;-67
2023/11/11 08:49:09;;;;;;;0.52;0.45;;;20.30;54.70;;;;;;5019339;28;20477;-66
2023/11/11 08:51:35;;;;;;;1.08;0.60;;;20.30;54.60;;;;;;5021156;28;20029;-66
2023/11/11 08:54:00;;;;;;;0.68;0.50;;;20.40;54.70;;;;;;5022037;28;20018;-66
2023/11/11 08:56:29;;;;;;;0.75;0.45;;;20.40;54.70;;;;;;5019711;28;20029;-67
2023/11/11 08:58:55;;;;;;;0.40;0.40;;;20.40;54.70;;;;;;5020192;28;20430;-66
2023/11/11 09:01:21;;;;;;;0.70;0.60;;;20.40;54.70;;;;;;5019625;28;20026;-67
2023/11/11 09:03:49;;;;;;;0.80;0.50;;;20.30;54.70;;;;;;5023783;28;20088;-66
2023/11/11 09:06:17;;;;;;;0.75;0.57;;;20.30;54.70;;;;;;5020711;28;20033;-66
2023/11/11 09:08:43;;;;;;;1.23;0.60;;;20.30;54.70;;;;;;5037116;28;20040;-66
2023/11/11 09:11:11;;;;;;;1.05;0.57;;;20.30;54.80;;;;;;5020392;28;20029;-67
2023/11/11 09:13:38;;;;;;;1.30;0.70;;;20.30;54.80;;;;;;5019670;28;20022;-68
2023/11/11 09:16:04;;;;;;;0.50;0.50;;;20.30;54.80;;;;;;5019368;28;20100;-67
2023/11/11 09:18:31;;;;;;;0.50;0.50;;;20.30;54.80;;;;;;5022051;28;20021;-67
2023/11/11 09:20:57;;;;;;;0.57;0.50;;;20.30;54.80;;;;;;5037089;28;20026;-68
2023/11/11 09:23:23;;;;;;;0.73;0.60;;;20.30;54.80;;;;;;5021034;28;20172;-67
2023/11/11 09:25:49;;;;;;;1.02;0.52;;;20.30;54.80;;;;;;5019421;28;20113;-67
2023/11/11 09:28:15;;;;;;;0.73;0.45;;;20.30;54.90;;;;;;5018463;28;20049;-68
2023/11/11 09:30:40;;;;;;;0.50;0.50;;;20.30;54.80;;;;;;5018877;28;20392;-67
2023/11/11 09:33:06;;;;;;;0.50;0.47;;;20.20;54.80;;;;;;5021352;28;20079;-67
2023/11/11 09:35:32;;;;;;;0.63;0.60;;;20.30;54.80;;;;;;5021317;28;20030;-67
2023/11/11 09:37:58;;;;;;;0.68;0.50;;;20.30;54.90;;;;;;5021847;28;20030;-68
2023/11/11 09:40:24;;;;;;;0.55;0.50;;;20.30;54.90;;;;;;5015644;28;20033;-70
2023/11/11 09:42:50;;;;;;;0.47;0.47;;;20.20;54.80;;;;;;5021284;28;20148;-70
2023/11/11 09:45:16;;;;;;;0.60;0.60;;;20.30;54.90;;;;;;5020478;28;20077;-70
2023/11/11 09:47:44;;;;;;;0.50;0.50;;;20.20;54.90;;;;;;5002705;28;20041;-71
2023/11/11 09:50:12;;;;;;;0.30;0.25;;;20.20;54.90;;;;;;5020508;28;20401;-70
2023/11/11 09:52:38;;;;;;;0.77;0.40;;;20.20;54.90;;;;;;5020813;28;20029;-70
2023/11/11 09:55:05;;;;;;;0.80;0.50;;;20.20;54.90;;;;;;5020875;28;20041;-70
2023/11/11 09:57:37;;;;;;;0.68;0.50;;;20.20;54.90;;;;;;5020065;28;20022;-71
2023/11/11 10:00:05;;;;;;;0.50;0.40;;;20.20;54.90;;;;;;5017521;28;20021;-71
2023/11/11 10:02:31;;;;;;;0.50;0.50;;;20.20;54.90;;;;;;5034124;28;20037;-71
2023/11/11 10:04:57;;;;;;;0.50;0.50;;;20.20;54.90;;;;;;5019767;28;20034;-71
2023/11/11 10:07:22;;;;;;;0.43;0.40;;;20.20;55.00;;;;;;5020808;28;20057;-71
2023/11/11 10:09:49;;;;;;;0.60;0.50;;;20.20;55.00;;;;;;5017109;28;20401;-70
2023/11/11 10:12:15;;;;;;;0.77;0.50;;;20.20;55.00;;;;;;5000656;28;20030;-70
2023/11/11 10:14:41;;;;;;;0.43;0.40;;;20.20;55.00;;;;;;5003367;28;20025;-70
2023/11/11 10:17:10;;;;;;;0.75;0.60;;;20.20;55.00;;;;;;5018008;28;20021;-70
2023/11/11 10:19:42;;;;;;;;;;;20.20;55.00;;;;;;5020220;28;20770;-67
2023/11/11 10:22:08;;;;;;;0.98;0.43;;;20.20;55.10;;;;;;5022629;28;19911;-68
2023/11/11 10:24:35;;;;;;;0.30;0.30;;;20.20;55.00;;;;;;5018449;28;20025;-67
2023/11/11 10:27:00;;;;;;;0.75;0.55;;;20.10;55.00;;;;;;5017299;28;20029;-67
2023/11/11 10:29:26;;;;;;;0.52;0.50;;;20.20;55.10;;;;;;5018687;28;20445;-67
2023/11/11 10:31:52;;;;;;;0.60;0.50;;;20.10;55.60;;;;;;5017114;28;20060;-67
2023/11/11 10:34:17;;;;;;;0.60;0.50;;;20.20;55.10;;;;;;5016572;28;20066;-68
2023/11/11 10:36:45;;;;;;;0.63;0.60;;;20.20;55.10;;;;;;5020338;28;20473;-68
2023/11/11 10:39:11;;;;;;;0.70;0.50;;;20.10;55.00;;;;;;5019715;28;20025;-68
2023/11/11 10:41:40;;;;;;;1.05;0.60;;;20.10;55.10;;;;;;5019390;28;20045;-68
2023/11/11 10:44:07;;;;;;;0.73;0.50;;;20.10;55.70;;;;;;5018453;28;20044;-68
2023/11/11 10:46:36;;;;;;;0.93;0.65;;;20.10;55.30;;;;;;5033953;28;20124;-68
2023/11/11 10:49:08;;;;;;;;;;;20.10;55.50;;;;;;5020457;28;20458;-67
2023/11/11 10:51:35;;;;;;;1.58;0.50;;;20.10;55.40;;;;;;5019566;28;19917;-67
2023/11/11 10:54:08;;;;;;;0.50;0.50;;;20.10;55.40;;;;;;5020041;28;20096;-66
2023/11/11 10:56:34;;;;;;;0.60;0.50;;;20.10;55.50;;;;;;5031616;28;20026;-67
2023/11/11 10:59:06;;;;;;;0.98;0.47;;;20.10;55.60;;;;;;5017985;28;20037;-66
2023/11/11 11:01:33;;;;;;;1.45;0.60;;;20.10;56.20;;;;;;5018191;28;20079;-67
2023/11/11 11:04:01;;;;;;;0.75;0.50;;;20.10;55.70;;;;;;5020868;28;20022;-68
2023/11/11 11:06:33;;;;;;;0.55;0.50;;;20.10;55.70;;;;;;5019119;28;20030;-67
2023/11/11 11:09:22;;;;;;;1.48;0.60;;;20.20;55.80;;;;;;5020329;28;20115;-68
2023/11/11 11:12:22;;;;;;;0.75;0.65;;;20.10;55.80;;;;;;5016967;28;20026;-68
2023/11/11 11:14:51;;;;;;;0.80;0.60;;;20.20;55.90;;;;;;5015246;28;20477;-68
2023/11/11 11:17:37;;;;;;;1.02;0.70;;;20.20;55.90;;;;;;5017041;28;20017;-68
2023/11/11 11:20:14;;;;;;;0.75;0.60;;;20.20;55.90;;;;;;5020054;28;20026;-68
2023/11/11 11:22:42;;;;;;;0.77;0.50;;;20.20;55.80;;;;;;5019953;28;20109;-68
2023/11/11 11:25:37;;;;;;;1.63;0.63;;;20.10;55.70;;;;;;5020011;28;20033;-70
2023/11/11 11:28:12;;;;;;;0.68;0.60;;;20.20;56.00;;;;;;5017427;28;20025;-69
2023/11/11 11:30:55;;;;;;;1.35;0.60;;;20.20;56.00;;;;;;5017641;28;20034;-67
2023/11/11 11:33:31;;;;;;;0.65;0.50;;;20.30;55.90;;;;;;5018034;28;20064;-69
2023/11/11 11:36:01;;;;;;;0.60;0.60;;;20.30;55.90;;;;;;5017594;28;20526;-69
2023/11/11 11:38:31;;;;;;;0.43;0.40;;;20.30;56.40;;;;;;5019456;28;20033;-67
2023/11/11 11:41:20;;;;;;;0.47;0.40;;;20.30;55.90;;;;;;5017550;28;20061;-67
2023/11/11 11:43:52;;;;;;;1.10;0.70;;;20.40;55.90;;;;;;5020302;28;20532;-68
2023/11/11 11:46:21;;;;;;;1.08;0.60;;;20.30;55.70;;;;;;5021131;28;20033;-68
2023/11/11 11:48:47;;;;;;;0.50;0.50;;;20.40;55.60;;;;;;5019020;28;20124;-67
2023/11/11 11:51:15;;;;;;;0.77;0.55;;;20.40;55.60;;;;;;5002088;28;20037;-68
2023/11/11 11:53:42;;;;;;;0.68;0.50;;;20.40;55.60;;;;;;5018015;28;20435;-68
2023/11/11 11:56:27;;;;;;;0.50;0.50;;;20.50;55.50;;;;;;4998096;28;20030;-68
2023/11/11 11:58:52;;;;;;;0.93;0.52;;;20.50;55.50;;;;;;5016491;28;20032;-68
2023/11/11 12:01:31;;;;;;;1.00;0.60;;;20.50;55.40;;;;;;5018564;28;20026;-73
2023/11/11 12:03:57;;;;;;;1.55;0.52;;;20.50;55.40;;;;;;5019829;28;20033;-72
2023/11/11 12:06:24;;;;;;;0.77;0.60;;;20.50;55.30;;;;;;5016160;28;20430;-73
2023/11/11 12:08:51;;;;;;;0.90;0.60;;;20.60;55.30;;;;;;5018483;28;20087;-72
2023/11/11 12:11:34;;;;;;;0.82;0.60;;;20.60;55.20;;;;;;5015032;28;20026;-68
2023/11/11 12:14:04;;;;;;;0.95;0.50;;;20.60;55.20;;;;;;5018173;28;20101;-71
2023/11/11 12:16:49;;;;;;;0.52;0.50;;;20.60;55.10;;;;;;5018257;28;20022;-69
2023/11/11 12:19:24;;;;;;;0.95;0.50;;;20.60;55.10;;;;;;5017286;28;20032;-68
2023/11/11 12:21:51;;;;;;;0.93;0.50;;;20.70;55.10;;;;;;5003686;28;20116;-72
2023/11/11 12:24:18;;;;;;;1.70;0.63;;;20.70;55.20;;;;;;5019801;28;20045;-72
2023/11/11 12:26:50;;;;;;;1.10;0.60;;;20.70;55.10;;;;;;5001378;28;20025;-71
2023/11/11 12:29:16;;;;;;;0.70;0.40;;;20.70;55.10;;;;;;5019949;28;20474;-70
2023/11/11 12:31:50;;;;;;;0.90;0.50;;;20.70;55.00;;;;;;5019410;28;20041;-70
2023/11/11 12:34:18;;;;;;;1.20;0.60;;;20.80;55.10;;;;;;5017614;28;20040;-70
2023/11/11 12:36:45;;;;;;;0.60;0.50;;;20.80;55.00;;;;;;5032068;28;20022;-69
2023/11/11 12:39:14;;;;;;;1.17;0.60;;;20.80;55.00;;;;;;5018196;28;20029;-67
2023/11/11 12:41:45;;;;;;;1.00;0.50;;;20.80;55.10;;;;;;5021154;28;20461;-68
2023/11/11 12:44:11;;;;;;;0.60;0.50;;;20.80;55.00;;;;;;5021414;28;20480;-68
2023/11/11 12:46:43;;;;;;;0.50;0.50;;;20.90;55.00;;;;;;5023482;28;20029;-68
2023/11/11 12:49:11;;;;;;;0.40;0.40;;;20.80;54.90;;;;;;5022015;28;20025;-68